Record high temperature 38.5°C Record low temperature -6.1°C Record high gust 94.9 km/h Record high average 70.9 km/h Record daily rain 58.2 mm Record low windchill -9.9°C Record high barometer 1045.9 hPa Record low barometer 985.2 hPa
Daily high pressure 1019.3 hPa Daily low pressure 1017.3 hPa Daily low windchill 23.2°C Daily high heat index 39.3°C Daily high gust speed 14.8 kmh WSW Daily high average speed 10.4 kmh W
Stazione meteo Crema centro
ULTIMO RILEVAMENTO ALLE ORE: 16:35 GIORNO: 08 Agosto 2020 prossimo aggiornamento ore: 16:40
Tempo presentePartly cloudy/Dry Temperatura attuale 34.5°C (94.1°F) (Indice calore 36.5°C ), temperatura apparente 37.8°C , Apparent temp solar 44.7°C
Temperatura massima (da mezzanotte)36.4°C alle ore: 16:15 Temperatura minima (da mezzanotte)23.2°C alle ore: 07:18
Forza media vento (dieci minuti)0.0 kmh (0.0 kts) Direzione vento (dieci minuti)SSW (202°)
Indice calore 36.5°C Massima forza (ultima ora)6.4 kmh (3.5 kts) alle ore: 15:38
Massima forza (da mezzanotte)14.8 kmh (8.0 kts) alle ore: 15:14 Massimo vento 1 minuto (da mezzanotte)10.4 kmh (5.6 kts) alle ore: 13:39
Pioggia (ultima ora)0.0 mm Pioggia (da mezzanotte)0.0 mm (0.00 in.)---
Pioggia Questo mese 52.8 mm (2.08 in.) Pioggia Questo anno 447.0 mm (17.60 in.)
Massima pioggia per minuto (ultima ora)0.0 mm/min Massima pioggia per ora (ultime 6 ore)0.0 mm/ore
Pioggia di ieri 0.0 mm DewPoint 19.7°C (Wet Bulb :24.6°C )
Umidita 42 %, Humidex 41.9°C Pressione S.L.M.1017.4 hPa (QNH 1017.4 hPa
Variazione pressione -0.1 hPa (ultima ora) Tendenza (ultime 1 ore)Stazionaria
Variazione pressione (ultime 12 ore)-1.1 hPa Variazione pressione (ultime 6 ore)-1.7 hPa
Current Solar 584 W/mē
Maximum solar (da mezzanotte) 812 W/mē Minimum solar (da mezzanotte)0 W/mē
Current 08:36 hours of sunshine today, current sky: Partly cloudy
Sunshine hours for the year: 1258:11 hrs Sunshine hours for the month: 55:05 hrs
Current evapotranspiration rate 6.8 mm per day. Yesterday's reading 4.9

Questa pagina e` aggiornata con i dati della stazione meteo DAVIS VP Premere Reload o Refresh per facilitare la lettura dei dati aggiornati.

Status report of weather station: IK2CHZ - Crema meteo



Weather report/warning/Metars

Milano / Linate, Italy (LIML) 45-26N 009-17E 103M
Aug 08, 2020 - 10:20 AM EDT / 2020.08.08 1420 UTC
Wind: from the SSE (160 degrees) at 7 MPH (6 KT) (direction variable):0
Visibility: greater than 7 mile(s):0
Temperature: 89 F (32 C)
Dew Point: 62 F (17 C)
Relative Humidity: 40%
Pressure (altimeter): 30.06 in. Hg (1018 hPa)
ob: LIML 081420Z 16006KT 120V220 CAVOK 32/17 Q1018 NOSIG
cycle: 14
Bergamo / Orio Al Serio, Italy (LIME) 45-40N 009-42E 237M
Aug 08, 2020 - 10:20 AM EDT / 2020.08.08 1420 UTC
Wind: from the S (180 degrees) at 6 MPH (5 KT) (direction variable):0
Visibility: greater than 7 mile(s):0
Temperature: 87 F (31 C)
Dew Point: 60 F (16 C)
Relative Humidity: 40%
Pressure (altimeter): 30.06 in. Hg (1018 hPa)
ob: LIME 081420Z 18005KT 140V230 CAVOK 31/16 Q1018 NOSIG
cycle: 14
Piacenza, Italy (LIMS) 44-55N 009-44E 138M
Aug 08, 2020 - 09:55 AM EDT / 2020.08.08 1355 UTC
Wind: from the E (100 degrees) at 7 MPH (6 KT):0
Visibility: greater than 7 mile(s):0
Temperature: 89 F (32 C)
Dew Point: 57 F (14 C)
Relative Humidity: 33%
Pressure (altimeter): 30.03 in. Hg (1017 hPa)
ob: LIMS 081355Z 10006KT CAVOK 32/14 Q1017
cycle: 14